createdAt,value
2019-02-25T00:00:19.433Z,97571.38
2019-02-25T00:05:16.455Z,97556.88
2019-02-25T00:10:13.428Z,97546.11
2019-02-25T00:15:10.411Z,97545.58
2019-02-25T00:20:11.634Z,97551.41
2019-02-25T00:25:11.048Z,97545.03
2019-02-25T00:30:13.976Z,97555.13
2019-02-25T00:35:10.961Z,97546.07
2019-02-25T00:40:11.099Z,97549.43
2019-02-25T00:45:13.667Z,97548.99
2019-02-25T00:50:18.874Z,97538.34
2019-02-25T00:55:15.939Z,97540.34
2019-02-25T01:00:23.469Z,97536.05
2019-02-25T01:05:20.495Z,97542.38
2019-02-25T01:10:17.790Z,97534.72
2019-02-25T01:15:16.558Z,97523.98
2019-02-25T01:20:15.462Z,97519.95
2019-02-25T01:25:15.409Z,97510.45
2019-02-25T01:30:21.184Z,97509.09
2019-02-25T01:35:18.108Z,97499.81
2019-02-25T01:40:15.094Z,97493.03
2019-02-25T01:45:19.504Z,97489.24
2019-02-25T01:50:18.265Z,97501.48
2019-02-25T01:55:15.294Z,97485.03
2019-02-25T02:00:18.368Z,97487.03
2019-02-25T02:05:15.332Z,97485.79
2019-02-25T02:10:16.458Z,97487.01
2019-02-25T02:15:18.549Z,97488.61
2019-02-25T02:20:16.706Z,97482.08
2019-02-25T02:25:13.675Z,97484.41
2019-02-25T02:30:15.355Z,97476.16
2019-02-25T02:35:12.390Z,97478.25
2019-02-25T02:40:12.362Z,97481.66
2019-02-25T02:45:14.769Z,97471.81
2019-02-25T02:50:19.493Z,97481.58
2019-02-25T02:55:16.458Z,97474.43
2019-02-25T03:00:16.299Z,97476.80
2019-02-25T03:05:15.017Z,97480.13
2019-02-25T03:10:14.907Z,97468.75
2019-02-25T03:15:14.843Z,97461.70
2019-02-25T03:20:13.759Z,97459.47
2019-02-25T03:25:16.345Z,97475.22
2019-02-25T03:30:22.162Z,97462.81
2019-02-25T03:35:19.438Z,97465.09
2019-02-25T03:40:21.496Z,97462.92
2019-02-25T03:45:19.526Z,97442.34
2019-02-25T03:50:16.577Z,97463.50
2019-02-25T03:55:17.144Z,97452.48
2019-02-25T04:00:24.783Z,97430.92
2019-02-25T04:05:22.032Z,97437.35
2019-02-25T04:10:19.082Z,97426.12
2019-02-25T04:15:20.282Z,97429.10
2019-02-25T04:20:17.328Z,97424.91
2019-02-25T04:25:14.252Z,97413.70
2019-02-25T04:30:16.113Z,97400.57
2019-02-25T04:35:13.865Z,97390.51
2019-02-25T04:40:12.911Z,97398.29
2019-02-25T04:45:18.903Z,97403.42
2019-02-25T04:50:15.931Z,97406.08
2019-02-25T04:55:14.405Z,97407.02
2019-02-25T05:00:20.489Z,97407.72
2019-02-25T05:05:17.548Z,97395.53
2019-02-25T05:10:16.754Z,97395.81
2019-02-25T05:15:15.567Z,97384.02
2019-02-25T05:20:12.692Z,97366.63
2019-02-25T05:25:11.509Z,97381.86
2019-02-25T05:30:13.118Z,97369.12
2019-02-25T05:35:11.472Z,97384.69
2019-02-25T05:40:15.468Z,97396.64
2019-02-25T05:45:13.838Z,97378.33
2019-02-25T05:50:13.319Z,97392.78
2019-02-25T05:55:14.491Z,97392.19
2019-02-25T06:00:20.305Z,97379.28
2019-02-25T06:05:17.411Z,97382.62
2019-02-25T06:10:14.504Z,97374.56
2019-02-25T06:15:18.051Z,97381.05
2019-02-25T06:20:16.074Z,97375.14
2019-02-25T06:25:14.249Z,97366.23
2019-02-25T06:30:19.331Z,97375.15
2019-02-25T06:35:16.472Z,97378.05
2019-02-25T06:40:18.263Z,97380.66
2019-02-25T06:45:24.609Z,97375.98
2019-02-25T06:50:21.659Z,97364.95
2019-02-25T06:55:18.684Z,97360.09
2019-02-25T07:00:21.728Z,97363.02
2019-02-25T07:05:21.881Z,97357.78
2019-02-25T07:10:23.703Z,97360.47
2019-02-25T07:15:23.794Z,97369.80
2019-02-25T07:20:25.733Z,97351.52
2019-02-25T07:25:28.354Z,97351.80
2019-02-25T07:30:29.147Z,97353.06
2019-02-25T07:35:32.964Z,97341.90
2019-02-25T07:40:42.186Z,97343.06
2019-02-25T07:45:57.695Z,97345.16
2019-02-25T07:51:06.689Z,97341.85
2019-02-25T07:56:08.950Z,97338.54
2019-02-25T08:01:08.015Z,97341.78
2019-02-25T08:06:12.613Z,97319.26
2019-02-25T08:11:19.505Z,97319.42
2019-02-25T08:16:21.149Z,97314.38
2019-02-25T08:21:36.215Z,97316.45
2019-02-25T08:26:51.635Z,97314.86
2019-02-25T08:31:50.565Z,97313.48
2019-02-25T08:37:14.483Z,97306.00
2019-02-25T08:42:16.493Z,97308.13
2019-02-25T08:47:15.490Z,97315.73
2019-02-25T08:52:14.400Z,97314.27
2019-02-25T08:57:13.159Z,97316.69
2019-02-25T09:02:13.318Z,97316.75
2019-02-25T09:07:10.365Z,97322.88
2019-02-25T09:12:09.404Z,97327.06
2019-02-25T09:17:10.067Z,97328.03
2019-02-25T09:22:07.101Z,97325.05
2019-02-25T09:27:06.065Z,97322.31
2019-02-25T09:32:02.985Z,97311.73
2019-02-25T09:37:00.135Z,97304.89
2019-02-25T09:41:57.102Z,97304.19
2019-02-25T09:46:54.509Z,97297.02
2019-02-25T09:51:51.534Z,97303.59
2019-02-25T09:56:48.580Z,97312.83
2019-02-25T10:01:45.546Z,97311.61
2019-02-25T10:06:42.625Z,97315.70
2019-02-25T10:11:39.732Z,97315.59
2019-02-25T10:16:36.795Z,97315.44
2019-02-25T10:21:33.762Z,97314.75
2019-02-25T10:26:32.955Z,97322.14
2019-02-25T10:31:29.989Z,97318.16
2019-02-25T10:36:26.999Z,97315.34
2019-02-25T10:41:26.119Z,97307.43
2019-02-25T10:46:23.973Z,97297.34
2019-02-25T10:51:20.941Z,97298.61
2019-02-25T10:56:29.350Z,97289.73
2019-02-25T11:01:26.411Z,97294.59
2019-02-25T11:06:25.142Z,97294.30
2019-02-25T11:11:27.062Z,97288.59
2019-02-25T11:16:22.979Z,97276.64
2019-02-25T11:21:19.909Z,97280.36
2019-02-25T11:26:17.067Z,97279.51
2019-02-25T11:31:15.809Z,97266.41
2019-02-25T11:36:17.137Z,97265.43
2019-02-25T11:41:13.941Z,97269.30
2019-02-25T11:46:11.236Z,97266.93
2019-02-25T11:51:08.239Z,97265.93
2019-02-25T11:56:05.749Z,97260.88
2019-02-25T12:01:04.193Z,97258.83
2019-02-25T12:06:01.233Z,97253.81
2019-02-25T12:10:58.554Z,97244.73
2019-02-25T12:15:55.639Z,97239.32
2019-02-25T12:20:52.745Z,97235.56
2019-02-25T12:25:49.795Z,97242.09
2019-02-25T12:30:46.774Z,97249.08
2019-02-25T12:35:46.735Z,97244.89
2019-02-25T12:40:44.647Z,97236.05
2019-02-25T12:45:41.629Z,97235.19
2019-02-25T12:50:38.559Z,97227.64
2019-02-25T12:55:35.946Z,97220.56
2019-02-25T13:00:36.455Z,97207.16
2019-02-25T13:05:33.403Z,97203.61
2019-02-25T13:10:30.405Z,97191.88
2019-02-25T13:15:27.406Z,97193.39
2019-02-25T13:20:24.349Z,97181.48
2019-02-25T13:25:28.643Z,97182.33
2019-02-25T13:30:25.673Z,97162.03
2019-02-25T13:35:24.017Z,97161.49
2019-02-25T13:40:21.289Z,97162.85
2019-02-25T13:45:21.171Z,97151.73
2019-02-25T13:50:18.819Z,97136.61
2019-02-25T13:55:21.222Z,97135.61
2019-02-25T14:00:26.469Z,97134.85
2019-02-25T14:05:23.521Z,97130.81
2019-02-25T14:10:20.615Z,97114.95
2019-02-25T14:15:22.416Z,97106.48
2019-02-25T14:20:24.709Z,97098.91
2019-02-25T14:25:33.183Z,97099.27
2019-02-25T14:30:33.544Z,97091.68
2019-02-25T14:35:33.208Z,97080.47
2019-02-25T14:40:32.447Z,97089.87
2019-02-25T14:45:33.648Z,97093.46
2019-02-25T14:50:30.324Z,97088.70
2019-02-25T14:55:27.358Z,97083.84
2019-02-25T15:00:26.867Z,97083.84
2019-02-25T15:05:31.064Z,97084.16
2019-02-25T15:10:29.103Z,97080.89
2019-02-25T15:15:26.449Z,97076.61
2019-02-25T15:20:25.608Z,97069.13
2019-02-25T15:25:22.561Z,97072.61
2019-02-25T15:30:28.341Z,97077.91
2019-02-25T15:35:28.852Z,97093.05
2019-02-25T15:40:27.110Z,97090.61
2019-02-25T15:45:27.029Z,97096.53
2019-02-25T15:50:25.982Z,97084.04
2019-02-25T15:55:23.417Z,97086.38
2019-02-25T16:00:27.710Z,97077.88
2019-02-25T16:05:27.444Z,97083.11
2019-02-25T16:10:25.110Z,97076.13
2019-02-25T16:15:39.203Z,97089.20
2019-02-25T16:20:37.939Z,97084.11
2019-02-25T16:25:34.991Z,97085.59
2019-02-25T16:30:32.531Z,97101.38
2019-02-25T16:35:29.620Z,97100.61
2019-02-25T16:40:28.728Z,97104.19
2019-02-25T16:45:32.393Z,97096.95
2019-02-25T16:50:27.136Z,97119.17
2019-02-25T16:55:27.375Z,97113.16
2019-02-25T17:00:29.974Z,97105.27
2019-02-25T17:05:27.581Z,97110.16
2019-02-25T17:10:27.077Z,97111.26
2019-02-25T17:15:26.935Z,97106.67
2019-02-25T17:20:27.840Z,97101.70
2019-02-25T17:25:26.825Z,97098.25
2019-02-25T17:30:26.154Z,97103.53
2019-02-25T17:35:26.637Z,97101.52
2019-02-25T17:40:23.264Z,97092.98
2019-02-25T17:45:29.362Z,97100.69
2019-02-25T17:50:26.220Z,97081.52
2019-02-25T17:55:29.284Z,97079.98
2019-02-25T18:00:42.309Z,97074.25
2019-02-25T18:05:40.758Z,97079.43
2019-02-25T18:10:38.628Z,97080.98
2019-02-25T18:15:35.704Z,97089.84
2019-02-25T18:20:32.879Z,97096.64
2019-02-25T18:25:30.119Z,97096.19
2019-02-25T18:30:30.927Z,97096.81
2019-02-25T18:35:28.263Z,97101.13
2019-02-25T18:40:25.773Z,97096.23
2019-02-25T18:45:25.401Z,97094.73
2019-02-25T18:50:26.360Z,97093.48
2019-02-25T18:55:27.084Z,97081.69
2019-02-25T19:00:34.040Z,97056.23
2019-02-25T19:05:31.907Z,97040.63
2019-02-25T19:10:29.061Z,97045.43
2019-02-25T19:15:29.652Z,97039.94
2019-02-25T19:20:27.137Z,97033.73
2019-02-25T19:25:25.726Z,97028.17
2019-02-25T19:30:24.815Z,97021.22
2019-02-25T19:35:25.827Z,97020.97
2019-02-25T19:40:24.505Z,97031.78
2019-02-25T19:45:21.897Z,97032.79
2019-02-25T19:50:22.559Z,97036.03
2019-02-25T19:55:20.582Z,97044.48
2019-02-25T20:00:28.226Z,97046.66
2019-02-25T20:05:26.206Z,97028.23
2019-02-25T20:10:23.626Z,97025.94
2019-02-25T20:15:25.138Z,97025.70
2019-02-25T20:20:23.902Z,97017.86
2019-02-25T20:25:21.821Z,97013.03
2019-02-25T20:30:21.913Z,96995.09
2019-02-25T20:35:19.883Z,96987.04
2019-02-25T20:40:21.203Z,96981.75
2019-02-25T20:45:27.735Z,96982.81
2019-02-25T20:50:25.973Z,96995.47
2019-02-25T20:55:24.819Z,96987.66
2019-02-25T21:00:24.301Z,96976.36
2019-02-25T21:05:22.788Z,96971.76
2019-02-25T21:10:22.540Z,96977.05
2019-02-25T21:15:20.224Z,96969.72
2019-02-25T21:20:19.264Z,96976.70
2019-02-25T21:25:16.792Z,96979.84
2019-02-25T21:30:19.660Z,96976.02
2019-02-25T21:35:18.194Z,96967.45
2019-02-25T21:40:25.058Z,96961.30
2019-02-25T21:45:24.229Z,96956.39
2019-02-25T21:50:21.346Z,96953.98
2019-02-25T21:55:18.446Z,96963.48
2019-02-25T22:00:27.133Z,96956.14
2019-02-25T22:05:24.279Z,96946.03
2019-02-25T22:10:21.683Z,96934.71
2019-02-25T22:15:19.710Z,96934.48
2019-02-25T22:20:18.912Z,96933.04
2019-02-25T22:25:19.700Z,96925.17
2019-02-25T22:30:17.332Z,96904.22
2019-02-25T22:35:14.988Z,96889.32
2019-02-25T22:40:17.187Z,96878.02
2019-02-25T22:45:18.613Z,96863.12
2019-02-25T22:50:15.461Z,96849.73
2019-02-25T22:55:15.087Z,96835.67
2019-02-25T23:00:46.441Z,96829.63
2019-02-25T23:05:45.386Z,96828.21
2019-02-25T23:10:44.326Z,96812.45
2019-02-25T23:15:44.247Z,96797.95
2019-02-25T23:20:42.872Z,96790.80
2019-02-25T23:25:41.415Z,96784.30
2019-02-25T23:30:39.628Z,96780.58
2019-02-25T23:35:40.784Z,96783.81
2019-02-25T23:40:39.730Z,96774.85
2019-02-25T23:45:37.906Z,96783.31
2019-02-25T23:50:36.139Z,96782.43
2019-02-25T23:55:33.257Z,96789.95
